sensor_id;sensor_type;location;lat;lon;timestamp;pressure;altitude;pressure_sealevel;temperature;humidity
70954;BME280;58618;47.490;8.736;2023-05-21T00:01:42;96106.94;;;11.29;100.00
70954;BME280;58618;47.490;8.736;2023-05-21T00:04:32;96106.44;;;11.27;100.00
70954;BME280;58618;47.490;8.736;2023-05-21T00:07:19;96103.78;;;11.32;100.00
70954;BME280;58618;47.490;8.736;2023-05-21T00:10:09;96101.88;;;11.24;100.00
70954;BME280;58618;47.490;8.736;2023-05-21T00:12:56;96104.44;;;11.24;100.00
70954;BME280;58618;47.490;8.736;2023-05-21T00:15:43;96101.47;;;11.17;100.00
70954;BME280;58618;47.490;8.736;2023-05-21T00:18:31;96083.59;;;11.07;100.00
70954;BME280;58618;47.490;8.736;2023-05-21T00:21:20;96099.75;;;11.13;100.00
70954;BME280;58618;47.490;8.736;2023-05-21T00:24:08;96092.78;;;11.13;100.00
70954;BME280;58618;47.490;8.736;2023-05-21T00:26:55;96091.91;;;11.04;100.00
70954;BME280;58618;47.490;8.736;2023-05-21T00:29:43;96097.06;;;11.04;100.00
70954;BME280;58618;47.490;8.736;2023-05-21T00:32:30;96089.59;;;11.02;100.00
70954;BME280;58618;47.490;8.736;2023-05-21T00:35:17;96088.84;;;11.02;100.00
70954;BME280;58618;47.490;8.736;2023-05-21T00:38:06;96074.31;;;11.06;100.00
70954;BME280;58618;47.490;8.736;2023-05-21T00:40:53;96074.13;;;11.02;100.00
70954;BME280;58618;47.490;8.736;2023-05-21T00:43:41;96077.75;;;11.01;100.00
70954;BME280;58618;47.490;8.736;2023-05-21T00:46:29;96070.84;;;10.97;100.00
70954;BME280;58618;47.490;8.736;2023-05-21T00:49:16;96072.94;;;10.95;100.00
70954;BME280;58618;47.490;8.736;2023-05-21T00:52:05;96070.38;;;10.95;100.00
70954;BME280;58618;47.490;8.736;2023-05-21T00:54:54;96069.91;;;10.93;100.00
70954;BME280;58618;47.490;8.736;2023-05-21T00:57:41;96074.47;;;10.96;100.00
70954;BME280;58618;47.490;8.736;2023-05-21T01:00:30;96082.22;;;10.96;100.00
70954;BME280;58618;47.490;8.736;2023-05-21T01:03:19;96082.72;;;10.98;100.00
70954;BME280;58618;47.490;8.736;2023-05-21T01:06:07;96076.38;;;10.90;100.00
70954;BME280;58618;47.490;8.736;2023-05-21T01:08:55;96077.66;;;10.93;100.00
70954;BME280;58618;47.490;8.736;2023-05-21T01:11:46;96077.72;;;10.88;100.00
70954;BME280;58618;47.490;8.736;2023-05-21T01:14:36;96076.69;;;10.89;100.00
70954;BME280;58618;47.490;8.736;2023-05-21T01:17:24;96074.09;;;10.89;100.00
70954;BME280;58618;47.490;8.736;2023-05-21T01:20:13;96068.47;;;10.87;100.00
70954;BME280;58618;47.490;8.736;2023-05-21T01:23:04;96080.22;;;10.93;100.00
70954;BME280;58618;47.490;8.736;2023-05-21T01:25:52;96072.47;;;10.93;100.00
70954;BME280;58618;47.490;8.736;2023-05-21T01:28:39;96073.72;;;10.95;100.00
70954;BME280;58618;47.490;8.736;2023-05-21T01:31:32;96073.34;;;11.02;100.00
70954;BME280;58618;47.490;8.736;2023-05-21T01:34:24;96070.69;;;11.07;100.00
70954;BME280;58618;47.490;8.736;2023-05-21T01:37:16;96075.34;;;11.05;100.00
70954;BME280;58618;47.490;8.736;2023-05-21T01:40:11;96076.88;;;11.06;100.00
70954;BME280;58618;47.490;8.736;2023-05-21T01:43:02;96074.63;;;11.18;100.00
70954;BME280;58618;47.490;8.736;2023-05-21T01:45:54;96075.94;;;11.16;100.00
70954;BME280;58618;47.490;8.736;2023-05-21T01:48:42;96074.22;;;11.11;100.00
70954;BME280;58618;47.490;8.736;2023-05-21T01:51:30;96072.22;;;11.08;100.00
70954;BME280;58618;47.490;8.736;2023-05-21T01:54:18;96062.44;;;11.05;100.00
70954;BME280;58618;47.490;8.736;2023-05-21T01:57:08;96067.81;;;11.09;100.00
70954;BME280;58618;47.490;8.736;2023-05-21T01:59:55;96062.84;;;11.12;100.00
70954;BME280;58618;47.490;8.736;2023-05-21T02:02:43;96058.25;;;11.09;100.00
70954;BME280;58618;47.490;8.736;2023-05-21T02:05:30;96054.69;;;11.05;100.00
70954;BME280;58618;47.490;8.736;2023-05-21T02:08:18;96055.28;;;11.02;100.00
70954;BME280;58618;47.490;8.736;2023-05-21T02:11:05;96049.09;;;11.03;100.00
70954;BME280;58618;47.490;8.736;2023-05-21T02:13:55;96056.34;;;11.01;100.00
70954;BME280;58618;47.490;8.736;2023-05-21T02:16:42;96046.97;;;11.05;100.00
70954;BME280;58618;47.490;8.736;2023-05-21T02:19:29;96047.81;;;11.00;100.00
70954;BME280;58618;47.490;8.736;2023-05-21T02:22:17;96049.63;;;11.00;100.00
70954;BME280;58618;47.490;8.736;2023-05-21T02:25:05;96037.41;;;10.92;100.00
70954;BME280;58618;47.490;8.736;2023-05-21T02:27:53;96047.53;;;11.02;100.00
70954;BME280;58618;47.490;8.736;2023-05-21T02:30:43;96050.63;;;11.04;100.00
70954;BME280;58618;47.490;8.736;2023-05-21T02:33:30;96037.81;;;10.99;100.00
70954;BME280;58618;47.490;8.736;2023-05-21T02:36:17;96038.94;;;10.93;100.00
70954;BME280;58618;47.490;8.736;2023-05-21T02:39:04;96044.09;;;10.93;100.00
70954;BME280;58618;47.490;8.736;2023-05-21T02:41:52;96039.50;;;10.90;100.00
70954;BME280;58618;47.490;8.736;2023-05-21T02:44:39;96036.53;;;10.83;100.00
70954;BME280;58618;47.490;8.736;2023-05-21T02:47:28;96045.31;;;10.82;100.00
70954;BME280;58618;47.490;8.736;2023-05-21T02:50:15;96042.47;;;10.83;100.00
70954;BME280;58618;47.490;8.736;2023-05-21T02:53:02;96040.06;;;10.87;100.00
70954;BME280;58618;47.490;8.736;2023-05-21T02:55:50;96043.28;;;10.79;100.00
70954;BME280;58618;47.490;8.736;2023-05-21T02:58:38;96043.28;;;10.79;100.00
70954;BME280;58618;47.490;8.736;2023-05-21T03:01:25;96039.31;;;10.73;100.00
70954;BME280;58618;47.490;8.736;2023-05-21T03:04:14;96044.66;;;10.76;100.00
70954;BME280;58618;47.490;8.736;2023-05-21T03:07:02;96043.09;;;10.75;100.00
70954;BME280;58618;47.490;8.736;2023-05-21T03:09:49;96044.47;;;10.73;100.00
70954;BME280;58618;47.490;8.736;2023-05-21T03:12:36;96048.63;;;10.69;100.00
70954;BME280;58618;47.490;8.736;2023-05-21T03:15:25;96038.41;;;10.64;100.00
70954;BME280;58618;47.490;8.736;2023-05-21T03:18:12;96041.75;;;10.64;100.00
70954;BME280;58618;47.490;8.736;2023-05-21T03:21:01;96034.31;;;10.63;100.00
70954;BME280;58618;47.490;8.736;2023-05-21T03:23:49;96031.78;;;10.57;100.00
70954;BME280;58618;47.490;8.736;2023-05-21T03:26:37;96033.41;;;10.53;100.00
70954;BME280;58618;47.490;8.736;2023-05-21T03:29:25;96034.44;;;10.52;100.00
70954;BME280;58618;47.490;8.736;2023-05-21T03:32:12;96035.59;;;10.46;100.00
70954;BME280;58618;47.490;8.736;2023-05-21T03:35:00;96046.47;;;10.43;100.00
70954;BME280;58618;47.490;8.736;2023-05-21T03:37:48;96039.31;;;10.40;100.00
70954;BME280;58618;47.490;8.736;2023-05-21T03:40:36;96030.59;;;10.36;100.00
70954;BME280;58618;47.490;8.736;2023-05-21T03:43:23;96046.09;;;10.36;100.00
70954;BME280;58618;47.490;8.736;2023-05-21T03:46:11;96037.34;;;10.32;100.00
70954;BME280;58618;47.490;8.736;2023-05-21T03:48:58;96043.00;;;10.34;100.00
70954;BME280;58618;47.490;8.736;2023-05-21T03:51:45;96042.81;;;10.31;100.00
70954;BME280;58618;47.490;8.736;2023-05-21T03:54:34;96048.72;;;10.31;100.00
70954;BME280;58618;47.490;8.736;2023-05-21T03:57:21;96066.00;;;10.31;100.00
70954;BME280;58618;47.490;8.736;2023-05-21T04:00:09;96058.47;;;10.34;100.00
70954;BME280;58618;47.490;8.736;2023-05-21T04:02:56;96060.91;;;10.44;100.00
70954;BME280;58618;47.490;8.736;2023-05-21T04:05:44;96062.72;;;10.57;100.00
70954;BME280;58618;47.490;8.736;2023-05-21T04:08:31;96061.38;;;10.46;100.00
70954;BME280;58618;47.490;8.736;2023-05-21T04:11:20;96069.94;;;10.61;100.00
70954;BME280;58618;47.490;8.736;2023-05-21T04:14:07;96068.31;;;10.65;100.00
70954;BME280;58618;47.490;8.736;2023-05-21T04:16:54;96072.50;;;10.61;100.00
70954;BME280;58618;47.490;8.736;2023-05-21T04:19:42;96076.03;;;10.65;100.00
70954;BME280;58618;47.490;8.736;2023-05-21T04:22:29;96078.06;;;10.68;100.00
70954;BME280;58618;47.490;8.736;2023-05-21T04:25:16;96083.41;;;10.71;100.00
70954;BME280;58618;47.490;8.736;2023-05-21T04:28:06;96078.66;;;10.78;100.00
70954;BME280;58618;47.490;8.736;2023-05-21T04:30:54;96070.69;;;10.93;100.00
70954;BME280;58618;47.490;8.736;2023-05-21T04:33:42;96081.84;;;10.89;100.00
70954;BME280;58618;47.490;8.736;2023-05-21T04:36:30;96083.94;;;10.87;100.00
70954;BME280;58618;47.490;8.736;2023-05-21T04:39:18;96079.41;;;10.79;100.00
70954;BME280;58618;47.490;8.736;2023-05-21T04:42:06;96082.00;;;10.79;100.00
70954;BME280;58618;47.490;8.736;2023-05-21T04:44:57;96085.06;;;10.81;100.00
70954;BME280;58618;47.490;8.736;2023-05-21T04:47:44;96084.03;;;10.82;100.00
70954;BME280;58618;47.490;8.736;2023-05-21T04:50:32;96087.75;;;10.89;100.00
70954;BME280;58618;47.490;8.736;2023-05-21T04:53:20;96092.34;;;10.92;100.00
70954;BME280;58618;47.490;8.736;2023-05-21T04:56:07;96096.75;;;11.06;100.00
70954;BME280;58618;47.490;8.736;2023-05-21T04:58:55;96094.19;;;11.06;100.00
70954;BME280;58618;47.490;8.736;2023-05-21T05:01:45;96102.59;;;11.11;100.00
70954;BME280;58618;47.490;8.736;2023-05-21T05:04:32;96098.34;;;11.20;100.00
70954;BME280;58618;47.490;8.736;2023-05-21T05:07:19;96092.50;;;11.28;100.00
70954;BME280;58618;47.490;8.736;2023-05-21T05:10:07;96098.22;;;11.53;100.00
70954;BME280;58618;47.490;8.736;2023-05-21T05:12:55;96100.81;;;11.53;100.00
70954;BME280;58618;47.490;8.736;2023-05-21T05:15:42;96095.56;;;11.58;100.00
70954;BME280;58618;47.490;8.736;2023-05-21T05:18:31;96101.09;;;11.65;100.00
70954;BME280;58618;47.490;8.736;2023-05-21T05:21:20;96097.78;;;11.78;100.00
70954;BME280;58618;47.490;8.736;2023-05-21T05:24:08;96097.09;;;11.86;100.00
70954;BME280;58618;47.490;8.736;2023-05-21T05:26:55;96105.50;;;12.05;100.00
70954;BME280;58618;47.490;8.736;2023-05-21T05:29:43;96107.56;;;12.17;100.00
70954;BME280;58618;47.490;8.736;2023-05-21T05:32:30;96099.78;;;12.31;100.00
70954;BME280;58618;47.490;8.736;2023-05-21T05:35:19;96092.59;;;12.27;100.00
70954;BME280;58618;47.490;8.736;2023-05-21T05:38:06;96101.78;;;12.56;100.00
70954;BME280;58618;47.490;8.736;2023-05-21T05:40:54;96100.00;;;12.87;100.00
70954;BME280;58618;47.490;8.736;2023-05-21T05:43:42;96103.25;;;13.24;100.00
70954;BME280;58618;47.490;8.736;2023-05-21T05:46:29;96094.91;;;13.83;100.00
70954;BME280;58618;47.490;8.736;2023-05-21T05:49:16;96099.81;;;14.28;100.00
70954;BME280;58618;47.490;8.736;2023-05-21T05:52:05;96104.72;;;14.72;100.00
70954;BME280;58618;47.490;8.736;2023-05-21T05:54:53;96101.25;;;15.15;100.00
70954;BME280;58618;47.490;8.736;2023-05-21T05:57:40;96112.13;;;15.55;100.00
70954;BME280;58618;47.490;8.736;2023-05-21T06:00:27;96108.72;;;15.25;100.00
70954;BME280;58618;47.490;8.736;2023-05-21T06:03:14;96111.25;;;14.96;100.00
70954;BME280;58618;47.490;8.736;2023-05-21T06:06:03;96111.75;;;15.74;100.00
70954;BME280;58618;47.490;8.736;2023-05-21T06:08:51;96118.19;;;15.68;100.00
70954;BME280;58618;47.490;8.736;2023-05-21T06:11:39;96118.41;;;15.45;100.00
70954;BME280;58618;47.490;8.736;2023-05-21T06:14:26;96117.84;;;16.28;100.00
70954;BME280;58618;47.490;8.736;2023-05-21T06:17:14;96116.75;;;17.15;100.00
70954;BME280;58618;47.490;8.736;2023-05-21T06:20:01;96119.88;;;17.66;100.00
70954;BME280;58618;47.490;8.736;2023-05-21T06:22:49;96107.44;;;18.11;100.00
70954;BME280;58618;47.490;8.736;2023-05-21T06:25:37;96107.34;;;18.48;100.00
70954;BME280;58618;47.490;8.736;2023-05-21T06:28:25;96108.09;;;18.48;100.00
70954;BME280;58618;47.490;8.736;2023-05-21T06:31:13;96107.56;;;18.55;100.00
70954;BME280;58618;47.490;8.736;2023-05-21T06:34:01;96112.75;;;18.83;100.00
70954;BME280;58618;47.490;8.736;2023-05-21T06:36:49;96103.81;;;18.28;100.00
70954;BME280;58618;47.490;8.736;2023-05-21T06:39:37;96112.91;;;17.82;100.00
70954;BME280;58618;47.490;8.736;2023-05-21T06:42:25;96110.06;;;17.39;100.00
70954;BME280;58618;47.490;8.736;2023-05-21T06:45:13;96108.22;;;17.27;100.00
70954;BME280;58618;47.490;8.736;2023-05-21T06:48:00;96102.47;;;17.58;100.00
70954;BME280;58618;47.490;8.736;2023-05-21T06:50:47;96109.75;;;18.41;100.00
70954;BME280;58618;47.490;8.736;2023-05-21T06:53:35;96110.22;;;18.71;100.00
70954;BME280;58618;47.490;8.736;2023-05-21T06:56:22;96114.16;;;18.52;100.00
70954;BME280;58618;47.490;8.736;2023-05-21T06:59:10;96107.72;;;19.49;100.00
70954;BME280;58618;47.490;8.736;2023-05-21T07:01:58;96117.31;;;19.76;96.89
70954;BME280;58618;47.490;8.736;2023-05-21T07:04:45;96119.97;;;19.96;90.10
70954;BME280;58618;47.490;8.736;2023-05-21T07:07:33;96120.06;;;21.60;82.54
70954;BME280;58618;47.490;8.736;2023-05-21T07:10:20;96117.88;;;22.15;79.42
70954;BME280;58618;47.490;8.736;2023-05-21T07:13:08;96122.47;;;21.23;84.25
70954;BME280;58618;47.490;8.736;2023-05-21T07:15:56;96124.53;;;23.05;75.54
70954;BME280;58618;47.490;8.736;2023-05-21T07:18:43;96124.69;;;23.64;72.06
70954;BME280;58618;47.490;8.736;2023-05-21T07:21:31;96127.19;;;22.39;75.64
70954;BME280;58618;47.490;8.736;2023-05-21T07:24:18;96124.88;;;23.00;73.07
70954;BME280;58618;47.490;8.736;2023-05-21T07:27:06;96128.44;;;25.25;61.30
70954;BME280;58618;47.490;8.736;2023-05-21T07:29:53;96109.75;;;22.90;71.02
70954;BME280;58618;47.490;8.736;2023-05-21T07:32:42;96107.31;;;25.39;60.86
70954;BME280;58618;47.490;8.736;2023-05-21T07:35:29;96111.44;;;25.05;63.14
70954;BME280;58618;47.490;8.736;2023-05-21T07:38:16;96102.78;;;25.43;56.94
70954;BME280;58618;47.490;8.736;2023-05-21T07:41:04;96100.19;;;23.56;67.46
70954;BME280;58618;47.490;8.736;2023-05-21T07:43:51;96093.44;;;23.14;65.93
70954;BME280;58618;47.490;8.736;2023-05-21T07:46:38;96094.97;;;24.28;62.97
70954;BME280;58618;47.490;8.736;2023-05-21T07:49:27;96092.09;;;23.35;66.84
70954;BME280;58618;47.490;8.736;2023-05-21T07:52:14;96093.50;;;24.31;64.63
70954;BME280;58618;47.490;8.736;2023-05-21T07:55:01;96096.72;;;24.90;57.95
70954;BME280;58618;47.490;8.736;2023-05-21T07:57:49;96096.00;;;25.42;57.74
70954;BME280;58618;47.490;8.736;2023-05-21T08:00:41;96095.13;;;26.30;55.06
70954;BME280;58618;47.490;8.736;2023-05-21T08:03:29;96094.34;;;26.33;52.20
70954;BME280;58618;47.490;8.736;2023-05-21T08:06:18;96092.47;;;22.89;63.33
70954;BME280;58618;47.490;8.736;2023-05-21T08:09:05;96090.72;;;23.48;64.52
70954;BME280;58618;47.490;8.736;2023-05-21T08:11:53;96093.41;;;22.41;71.31
70954;BME280;58618;47.490;8.736;2023-05-21T08:14:40;96090.34;;;23.05;65.46
70954;BME280;58618;47.490;8.736;2023-05-21T08:17:27;96097.00;;;23.84;61.01
70954;BME280;58618;47.490;8.736;2023-05-21T08:20:15;96099.19;;;23.75;63.55
70954;BME280;58618;47.490;8.736;2023-05-21T08:23:04;96100.63;;;23.65;68.82
70954;BME280;58618;47.490;8.736;2023-05-21T08:25:51;96099.16;;;23.71;62.68
70954;BME280;58618;47.490;8.736;2023-05-21T08:28:39;96100.00;;;24.65;61.63
70954;BME280;58618;47.490;8.736;2023-05-21T08:31:26;96098.19;;;23.93;66.06
70954;BME280;58618;47.490;8.736;2023-05-21T08:34:13;96101.13;;;24.61;65.35
70954;BME280;58618;47.490;8.736;2023-05-21T08:37:01;96098.63;;;25.03;61.90
70954;BME280;58618;47.490;8.736;2023-05-21T08:39:50;96097.97;;;24.20;64.64
70954;BME280;58618;47.490;8.736;2023-05-21T08:42:42;96089.97;;;25.45;59.37
70954;BME280;58618;47.490;8.736;2023-05-21T08:45:33;96093.72;;;24.95;61.81
70954;BME280;58618;47.490;8.736;2023-05-21T08:48:22;96084.94;;;26.25;55.76
70954;BME280;58618;47.490;8.736;2023-05-21T08:51:09;96088.63;;;26.49;55.64
70954;BME280;58618;47.490;8.736;2023-05-21T08:53:58;96074.78;;;26.10;58.83
70954;BME280;58618;47.490;8.736;2023-05-21T08:56:49;96081.31;;;26.71;55.96
70954;BME280;58618;47.490;8.736;2023-05-21T08:59:36;96085.03;;;26.84;51.42
70954;BME280;58618;47.490;8.736;2023-05-21T09:02:32;96076.38;;;26.80;53.15
70954;BME280;58618;47.490;8.736;2023-05-21T09:05:19;96085.53;;;27.23;52.19
70954;BME280;58618;47.490;8.736;2023-05-21T09:08:35;96083.03;;;26.29;56.19
70954;BME280;58618;47.490;8.736;2023-05-21T09:11:24;96087.97;;;24.71;60.23
70954;BME280;58618;47.490;8.736;2023-05-21T09:14:13;96080.19;;;25.63;56.88
70954;BME280;58618;47.490;8.736;2023-05-21T09:17:01;96086.94;;;25.29;59.79
70954;BME280;58618;47.490;8.736;2023-05-21T09:20:07;96087.59;;;24.69;58.68
70954;BME280;58618;47.490;8.736;2023-05-21T09:23:01;96091.38;;;24.75;59.65
70954;BME280;58618;47.490;8.736;2023-05-21T09:25:49;96084.69;;;25.74;60.37
70954;BME280;58618;47.490;8.736;2023-05-21T09:28:37;96084.03;;;24.23;63.01
70954;BME280;58618;47.490;8.736;2023-05-21T09:31:26;96086.94;;;25.82;55.23
70954;BME280;58618;47.490;8.736;2023-05-21T09:34:15;96084.63;;;25.91;52.74
70954;BME280;58618;47.490;8.736;2023-05-21T09:37:03;96090.50;;;24.36;57.94
70954;BME280;58618;47.490;8.736;2023-05-21T09:39:50;96091.47;;;25.11;60.04
70954;BME280;58618;47.490;8.736;2023-05-21T09:42:38;96086.22;;;24.10;65.27
70954;BME280;58618;47.490;8.736;2023-05-21T09:45:27;96081.97;;;23.91;68.69
70954;BME280;58618;47.490;8.736;2023-05-21T09:48:15;96083.47;;;24.79;57.92
70954;BME280;58618;47.490;8.736;2023-05-21T09:51:14;96089.94;;;25.03;56.12
70954;BME280;58618;47.490;8.736;2023-05-21T09:56:50;96091.59;;;24.28;61.17
70954;BME280;58618;47.490;8.736;2023-05-21T09:59:38;96080.91;;;24.03;63.64
70954;BME280;58618;47.490;8.736;2023-05-21T10:02:25;96085.19;;;24.29;60.94
70954;BME280;58618;47.490;8.736;2023-05-21T10:05:15;96089.75;;;24.32;60.22
70954;BME280;58618;47.490;8.736;2023-05-21T10:08:03;96087.44;;;23.17;64.73
70954;BME280;58618;47.490;8.736;2023-05-21T10:10:51;96083.78;;;23.26;62.96
70954;BME280;58618;47.490;8.736;2023-05-21T10:13:42;96083.19;;;23.02;68.37
70954;BME280;58618;47.490;8.736;2023-05-21T10:16:33;96080.34;;;22.81;66.62
70954;BME280;58618;47.490;8.736;2023-05-21T10:19:21;96078.84;;;23.21;65.64
70954;BME280;58618;47.490;8.736;2023-05-21T10:22:11;96087.13;;;22.82;71.70
70954;BME280;58618;47.490;8.736;2023-05-21T10:25:00;96079.16;;;22.75;72.04
70954;BME280;58618;47.490;8.736;2023-05-21T10:27:48;96079.31;;;22.56;70.11
70954;BME280;58618;47.490;8.736;2023-05-21T10:30:36;96080.66;;;23.13;69.20
70954;BME280;58618;47.490;8.736;2023-05-21T10:33:24;96083.84;;;22.59;67.46
70954;BME280;58618;47.490;8.736;2023-05-21T10:36:14;96080.13;;;23.41;64.15
70954;BME280;58618;47.490;8.736;2023-05-21T10:39:04;96076.31;;;23.35;70.08
70954;BME280;58618;47.490;8.736;2023-05-21T10:42:00;96073.28;;;23.33;63.35
70954;BME280;58618;47.490;8.736;2023-05-21T10:45:04;96071.91;;;23.02;64.21
70954;BME280;58618;47.490;8.736;2023-05-21T10:48:05;96066.28;;;23.03;66.97
70954;BME280;58618;47.490;8.736;2023-05-21T10:51:21;96069.53;;;23.34;67.38
70954;BME280;58618;47.490;8.736;2023-05-21T10:58:09;96060.84;;;22.86;64.80
70954;BME280;58618;47.490;8.736;2023-05-21T11:01:02;96059.81;;;22.57;66.71
70954;BME280;58618;47.490;8.736;2023-05-21T11:03:50;96065.69;;;23.21;61.73
70954;BME280;58618;47.490;8.736;2023-05-21T11:06:37;96058.47;;;23.58;62.88
70954;BME280;58618;47.490;8.736;2023-05-21T11:09:25;96058.13;;;23.63;61.94
70954;BME280;58618;47.490;8.736;2023-05-21T11:12:13;96058.41;;;23.51;63.33
70954;BME280;58618;47.490;8.736;2023-05-21T11:15:05;96060.94;;;22.96;62.60
70954;BME280;58618;47.490;8.736;2023-05-21T11:17:55;96053.59;;;22.72;64.25
70954;BME280;58618;47.490;8.736;2023-05-21T11:20:49;96051.09;;;22.53;66.40
70954;BME280;58618;47.490;8.736;2023-05-21T11:23:47;96050.69;;;22.84;62.96
70954;BME280;58618;47.490;8.736;2023-05-21T11:27:00;96048.69;;;23.62;62.45
70954;BME280;58618;47.490;8.736;2023-05-21T11:29:54;96058.13;;;23.63;60.29
70954;BME280;58618;47.490;8.736;2023-05-21T11:36:10;96056.78;;;23.36;58.10
70954;BME280;58618;47.490;8.736;2023-05-21T11:39:07;96053.78;;;23.41;58.61
70954;BME280;58618;47.490;8.736;2023-05-21T11:41:56;96058.31;;;23.40;59.29
70954;BME280;58618;47.490;8.736;2023-05-21T11:44:46;96058.22;;;23.30;57.56
70954;BME280;58618;47.490;8.736;2023-05-21T11:47:33;96056.25;;;22.76;55.79
70954;BME280;58618;47.490;8.736;2023-05-21T11:50:21;96060.81;;;22.79;54.49
70954;BME280;58618;47.490;8.736;2023-05-21T11:53:09;96052.78;;;23.08;54.97
70954;BME280;58618;47.490;8.736;2023-05-21T11:55:57;96055.53;;;22.79;55.05
70954;BME280;58618;47.490;8.736;2023-05-21T11:58:45;96059.03;;;22.56;58.72
70954;BME280;58618;47.490;8.736;2023-05-21T12:01:32;96047.69;;;23.26;57.13
70954;BME280;58618;47.490;8.736;2023-05-21T12:04:19;96058.25;;;23.33;53.28
70954;BME280;58618;47.490;8.736;2023-05-21T12:07:09;96054.06;;;23.29;57.27
70954;BME280;58618;47.490;8.736;2023-05-21T12:09:58;96061.19;;;23.21;55.01
70954;BME280;58618;47.490;8.736;2023-05-21T12:12:46;96056.66;;;23.22;54.81
70954;BME280;58618;47.490;8.736;2023-05-21T12:15:33;96055.50;;;23.63;54.47
70954;BME280;58618;47.490;8.736;2023-05-21T12:18:21;96057.25;;;24.10;53.59
70954;BME280;58618;47.490;8.736;2023-05-21T12:21:09;96059.13;;;24.17;52.76
70954;BME280;58618;47.490;8.736;2023-05-21T12:23:56;96050.97;;;23.16;56.12
70954;BME280;58618;47.490;8.736;2023-05-21T12:26:45;96054.06;;;22.85;58.51
70954;BME280;58618;47.490;8.736;2023-05-21T12:29:34;96054.25;;;23.02;58.56
70954;BME280;58618;47.490;8.736;2023-05-21T12:32:21;96050.41;;;23.40;56.16
70954;BME280;58618;47.490;8.736;2023-05-21T12:35:20;96051.75;;;23.71;56.56
70954;BME280;58618;47.490;8.736;2023-05-21T12:38:08;96053.34;;;23.86;57.70
70954;BME280;58618;47.490;8.736;2023-05-21T12:41:02;96058.25;;;23.33;57.38
70954;BME280;58618;47.490;8.736;2023-05-21T12:43:51;96050.50;;;23.03;55.43
70954;BME280;58618;47.490;8.736;2023-05-21T12:46:38;96051.00;;;23.74;55.70
70954;BME280;58618;47.490;8.736;2023-05-21T12:49:35;96045.66;;;23.60;60.60
70954;BME280;58618;47.490;8.736;2023-05-21T12:52:23;96050.28;;;23.74;58.33
70954;BME280;58618;47.490;8.736;2023-05-21T12:55:13;96045.81;;;23.85;53.31
70954;BME280;58618;47.490;8.736;2023-05-21T12:58:01;96048.59;;;23.48;51.74
70954;BME280;58618;47.490;8.736;2023-05-21T13:00:53;96054.00;;;23.22;44.42
70954;BME280;58618;47.490;8.736;2023-05-21T13:03:41;96054.91;;;23.40;45.34
70954;BME280;58618;47.490;8.736;2023-05-21T13:06:29;96054.78;;;23.73;45.27
70954;BME280;58618;47.490;8.736;2023-05-21T13:09:16;96054.03;;;23.76;44.86
70954;BME280;58618;47.490;8.736;2023-05-21T13:12:04;96053.84;;;24.17;48.05
70954;BME280;58618;47.490;8.736;2023-05-21T13:14:52;96058.84;;;24.32;48.24
70954;BME280;58618;47.490;8.736;2023-05-21T13:17:41;96052.41;;;24.23;46.36
70954;BME280;58618;47.490;8.736;2023-05-21T13:20:28;96049.84;;;24.37;47.78
70954;BME280;58618;47.490;8.736;2023-05-21T13:23:16;96039.34;;;24.58;45.59
70954;BME280;58618;47.490;8.736;2023-05-21T13:26:03;96040.78;;;24.34;55.67
70954;BME280;58618;47.490;8.736;2023-05-21T13:28:50;96046.78;;;24.28;45.14
70954;BME280;58618;47.490;8.736;2023-05-21T13:31:38;96034.81;;;24.62;45.92
70954;BME280;58618;47.490;8.736;2023-05-21T13:34:26;96035.63;;;24.91;48.16
70954;BME280;58618;47.490;8.736;2023-05-21T13:37:14;96042.72;;;24.52;48.57
70954;BME280;58618;47.490;8.736;2023-05-21T13:40:02;96034.84;;;24.76;46.89
70954;BME280;58618;47.490;8.736;2023-05-21T13:42:50;96028.06;;;24.86;45.71
70954;BME280;58618;47.490;8.736;2023-05-21T13:45:37;96034.16;;;25.22;48.55
70954;BME280;58618;47.490;8.736;2023-05-21T13:48:24;96028.09;;;25.46;47.81
70954;BME280;58618;47.490;8.736;2023-05-21T13:51:13;96034.50;;;25.67;46.48
70954;BME280;58618;47.490;8.736;2023-05-21T13:54:00;96032.22;;;25.69;46.66
70954;BME280;58618;47.490;8.736;2023-05-21T13:56:47;96029.63;;;25.37;45.95
70954;BME280;58618;47.490;8.736;2023-05-21T13:59:35;96030.34;;;25.65;45.79
70954;BME280;58618;47.490;8.736;2023-05-21T14:02:22;96028.13;;;25.04;47.48
70954;BME280;58618;47.490;8.736;2023-05-21T14:05:10;96024.31;;;25.40;48.46
70954;BME280;58618;47.490;8.736;2023-05-21T14:07:59;96034.06;;;24.62;47.92
70954;BME280;58618;47.490;8.736;2023-05-21T14:10:46;96027.31;;;24.71;48.80
70954;BME280;58618;47.490;8.736;2023-05-21T14:13:33;96029.94;;;24.71;54.61
70954;BME280;58618;47.490;8.736;2023-05-21T14:16:21;96013.75;;;24.83;49.33
70954;BME280;58618;47.490;8.736;2023-05-21T14:19:09;96020.13;;;24.75;49.63
70954;BME280;58618;47.490;8.736;2023-05-21T14:21:57;96017.56;;;24.90;49.36
70954;BME280;58618;47.490;8.736;2023-05-21T14:24:46;96026.53;;;24.60;51.19
70954;BME280;58618;47.490;8.736;2023-05-21T14:27:33;96019.31;;;24.36;50.98
70954;BME280;58618;47.490;8.736;2023-05-21T14:30:22;96022.75;;;24.54;51.28
70954;BME280;58618;47.490;8.736;2023-05-21T14:33:10;96015.25;;;24.63;51.46
70954;BME280;58618;47.490;8.736;2023-05-21T14:35:58;96012.13;;;24.29;49.96
70954;BME280;58618;47.490;8.736;2023-05-21T14:38:45;96015.59;;;24.65;49.33
70954;BME280;58618;47.490;8.736;2023-05-21T14:41:37;96015.97;;;24.60;48.48
70954;BME280;58618;47.490;8.736;2023-05-21T14:44:25;96012.97;;;24.58;49.92
70954;BME280;58618;47.490;8.736;2023-05-21T14:47:12;96003.91;;;24.45;49.07
70954;BME280;58618;47.490;8.736;2023-05-21T14:50:00;96009.56;;;24.61;48.16
70954;BME280;58618;47.490;8.736;2023-05-21T14:52:47;96013.75;;;24.87;47.88
70954;BME280;58618;47.490;8.736;2023-05-21T14:55:35;96005.06;;;24.58;47.13
70954;BME280;58618;47.490;8.736;2023-05-21T14:58:23;96010.72;;;24.53;48.58